Time;durP1;ratioP1;P1;durP2;ratioP2;P2;SDS_P1;SDS_P2;PMS_P1;PMS_P2;Temp;Humidity;BMP_temperature;BMP_pressure;BME280_temperature;BME280_humidity;BME280_pressure;Samples;Min_cycle;Max_cycle;Signal;HPM_P1;HPM_P2
2024/02/13 00:01:40;;;;;;;;;;;;;;;16.41;47.02;99730.34;4900834;29;1070;-45
2024/02/13 00:04:08;;;;;;;;;;;;;;;16.09;46.54;99728.72;4894541;29;1132;-47
2024/02/13 00:06:34;;;;;;;;;;;;;;;15.91;45.78;99726.69;4888858;29;1126;-48
2024/02/13 00:08:59;;;;;;;;;;;;;;;17.67;46.04;99734.13;4901044;29;1089;-48
2024/02/13 00:11:25;;;;;;;;;;;;;;;16.65;47.00;99734.44;4904246;29;1162;-48
2024/02/13 00:13:50;;;;;;;;;;;;;;;16.23;46.66;99733.66;4903634;29;1252;-46
2024/02/13 00:16:20;;;;;;;;;;;;;;;15.98;46.28;99729.63;4900863;29;1073;-45
2024/02/13 00:18:46;;;;;;;;;;;;;;;15.90;45.28;99722.31;4885042;29;1977;-46
2024/02/13 00:21:12;;;;;;;;;;;;;;;16.74;46.91;99717.69;4898024;29;1211;-47
2024/02/13 00:23:38;;;;;;;;;;;;;;;17.62;45.44;99710.63;4903776;29;1054;-47
2024/02/13 00:26:04;;;;;;;;;;;;;;;16.38;47.33;99709.41;4903760;29;1070;-50
2024/02/13 00:28:29;;;;;;;;;;;;;;;16.03;46.86;99701.75;4903427;29;1133;-48
2024/02/13 00:30:56;;;;;;;;;;;;;;;15.92;46.33;99704.47;4903422;29;1174;-47
2024/02/13 00:33:21;;;;;;;;;;;;;;;16.22;46.60;99697.47;4901215;29;1101;-45
2024/02/13 00:35:47;;;;;;;;;;;;;;;17.56;45.89;99695.25;4899150;29;1144;-46
2024/02/13 00:38:15;;;;;;;;;;;;;;;16.28;47.47;99686.31;4895178;29;1907;-48
2024/02/13 00:40:41;;;;;;;;;;;;;;;16.45;48.01;99685.81;4899096;29;1039;-50
2024/02/13 00:43:07;;;;;;;;;;;;;;;17.27;46.40;99688.16;4894912;29;1090;-48
2024/02/13 00:45:32;;;;;;;;;;;;;;;16.39;47.18;99680.06;4898840;29;1062;-46
2024/02/13 00:47:58;;;;;;;;;;;;;;;16.07;46.94;99685.56;4884757;29;1151;-48
2024/02/13 00:50:24;;;;;;;;;;;;;;;16.17;47.28;99689.09;4900513;29;1074;-46
2024/02/13 00:52:50;;;;;;;;;;;;;;;17.91;45.42;99694.69;4903506;29;1061;-48
2024/02/13 00:55:15;;;;;;;;;;;;;;;16.56;47.26;99687.47;4902821;29;1157;-46
2024/02/13 00:57:41;;;;;;;;;;;;;;;16.11;46.88;99687.84;4901528;29;1968;-51
2024/02/13 01:00:10;;;;;;;;;;;;;;;15.95;46.25;99685.63;4899424;29;1082;-46
2024/02/13 01:02:36;;;;;;;;;;;;;;;17.51;46.53;99686.88;4884849;29;1046;-52
2024/02/13 01:05:01;;;;;;;;;;;;;;;16.89;46.82;99683.59;4900335;29;1046;-46
2024/02/13 01:07:28;;;;;;;;;;;;;;;16.37;46.72;99683.81;4903252;29;1209;-45
2024/02/13 01:09:54;;;;;;;;;;;;;;;16.11;46.16;99681.69;4892956;29;1113;-49
2024/02/13 01:12:19;;;;;;;;;;;;;;;17.44;46.61;99680.44;4884291;29;1216;-49
2024/02/13 01:14:45;;;;;;;;;;;;;;;17.19;46.51;99672.09;4884309;29;1106;-47
2024/02/13 01:17:11;;;;;;;;;;;;;;;16.47;46.82;99673.22;4884210;29;1911;-50
2024/02/13 01:19:36;;;;;;;;;;;;;;;16.25;46.45;99672.47;4888190;29;1246;-48
2024/02/13 01:22:02;;;;;;;;;;;;;;;16.53;46.83;99662.88;4901898;29;1190;-45
2024/02/13 01:24:28;;;;;;;;;;;;;;;17.20;46.56;99666.63;4886253;29;1241;-46
2024/02/13 01:26:55;;;;;;;;;;;;;;;16.29;46.87;99668.59;4883663;29;1054;-46
2024/02/13 01:29:20;;;;;;;;;;;;;;;16.18;46.29;99672.22;4901042;29;1101;-48
2024/02/13 01:31:49;;;;;;;;;;;;;;;15.99;45.44;99662.38;4902703;29;1126;-49
2024/02/13 01:34:14;;;;;;;;;;;;;;;15.84;46.22;99669.81;4897362;29;1111;-47
2024/02/13 01:36:40;;;;;;;;;;;;;;;17.75;45.75;99678.38;4883521;29;1134;-48
2024/02/13 01:39:05;;;;;;;;;;;;;;;16.44;47.13;99679.66;4888579;29;1910;-50
2024/02/13 01:41:31;;;;;;;;;;;;;;;16.10;46.69;99680.00;4902733;29;1145;-46
2024/02/13 01:43:57;;;;;;;;;;;;;;;16.81;47.32;99682.59;4889999;29;1066;-47
2024/02/13 01:46:24;;;;;;;;;;;;;;;16.85;46.45;99689.31;4901815;29;885;-48
2024/02/13 01:48:49;;;;;;;;;;;;;;;16.23;46.74;99696.50;4911345;29;1121;-49
2024/02/13 01:51:15;;;;;;;;;;;;;;;15.90;46.56;99693.16;4909618;29;1047;-48
2024/02/13 01:53:41;;;;;;;;;;;;;;;15.91;45.70;99697.50;4902212;29;1070;-48
2024/02/13 01:56:06;;;;;;;;;;;;;;;15.72;45.29;99695.59;4902346;29;1141;-47
2024/02/13 01:58:32;;;;;;;;;;;;;;;17.50;46.14;99698.47;4911509;29;1899;-44
2024/02/13 02:01:01;;;;;;;;;;;;;;;16.65;46.95;99699.91;4894674;29;1119;-48
2024/02/13 02:03:32;;;;;;;;;;;;;;;16.16;46.66;99709.47;4889553;29;1083;-45
2024/02/13 02:06:01;;;;;;;;;;;;;;;15.90;46.19;99709.91;4902067;29;1160;-50
2024/02/13 02:08:26;;;;;;;;;;;;;;;15.71;45.88;99710.69;4883031;29;1101;-51
2024/02/13 02:10:53;;;;;;;;;;;;;;;16.06;46.02;99721.88;4896512;29;902;-50
2024/02/13 02:13:19;;;;;;;;;;;;;;;17.72;45.46;99720.38;4889518;29;1077;-44
2024/02/13 02:15:44;;;;;;;;;;;;;;;16.45;46.61;99726.44;4901922;29;1093;-51
2024/02/13 02:18:10;;;;;;;;;;;;;;;16.12;46.96;99718.69;4888672;29;1973;-50
2024/02/13 02:20:36;;;;;;;;;;;;;;;17.71;45.40;99724.03;4901791;29;1074;-45
2024/02/13 02:23:02;;;;;;;;;;;;;;;16.39;46.93;99717.22;4900185;29;1174;-48
2024/02/13 02:25:28;;;;;;;;;;;;;;;16.03;46.69;99730.13;4901655;29;1169;-50
2024/02/13 02:27:54;;;;;;;;;;;;;;;15.94;45.56;99723.75;4901476;29;1105;-46
2024/02/13 02:30:19;;;;;;;;;;;;;;;16.57;46.82;99726.31;4904510;29;1190;-48
2024/02/13 02:32:47;;;;;;;;;;;;;;;17.48;45.65;99737.69;4882645;29;1030;-49
2024/02/13 02:35:13;;;;;;;;;;;;;;;16.34;47.11;99732.72;4895260;29;941;-46
2024/02/13 02:37:40;;;;;;;;;;;;;;;16.05;46.12;99733.44;4889099;29;1902;-47
2024/02/13 02:40:06;;;;;;;;;;;;;;;15.91;45.68;99740.75;4901202;29;1129;-49
2024/02/13 02:42:31;;;;;;;;;;;;;;;17.53;45.81;99743.41;4901692;29;1158;-50
2024/02/13 02:44:58;;;;;;;;;;;;;;;16.40;46.86;99747.25;4888338;29;1050;-51
2024/02/13 02:47:24;;;;;;;;;;;;;;;16.07;46.33;99743.91;4882816;29;920;-48
2024/02/13 02:49:50;;;;;;;;;;;;;;;15.90;45.83;99743.53;4882007;29;1521;-49
2024/02/13 02:52:17;;;;;;;;;;;;;;;16.71;46.57;99756.97;4883036;29;1040;-50
2024/02/13 02:54:43;;;;;;;;;;;;;;;17.18;46.12;99751.00;4895296;29;1046;-46
2024/02/13 02:57:11;;;;;;;;;;;;;;;16.27;46.63;99753.66;4894742;29;1918;-49
2024/02/13 02:59:36;;;;;;;;;;;;;;;16.03;45.99;99748.69;4895239;29;980;-49
2024/02/13 03:02:02;;;;;;;;;;;;;;;16.33;47.16;99744.28;4901265;29;1058;-49
2024/02/13 03:04:28;;;;;;;;;;;;;;;17.74;45.08;99751.19;4888230;29;1105;-47
2024/02/13 03:06:53;;;;;;;;;;;;;;;16.43;46.72;99748.81;4894782;29;1181;-47
2024/02/13 03:09:19;;;;;;;;;;;;;;;16.80;47.05;99747.34;4882222;29;1090;-47
2024/02/13 03:11:45;;;;;;;;;;;;;;;16.71;46.85;99744.53;4913247;29;914;-46
2024/02/13 03:14:10;;;;;;;;;;;;;;;16.27;46.29;99742.19;4901031;29;998;-46
2024/02/13 03:16:36;;;;;;;;;;;;;;;16.00;45.93;99741.81;4901182;29;1128;-47
2024/02/13 03:19:02;;;;;;;;;;;;;;;17.57;45.80;99743.94;4900590;29;1987;-45
2024/02/13 03:21:28;;;;;;;;;;;;;;;16.58;46.83;99754.56;4900778;29;1085;-46
2024/02/13 03:23:54;;;;;;;;;;;;;;;16.15;46.40;99760.88;4900440;29;956;-47
2024/02/13 03:26:19;;;;;;;;;;;;;;;15.93;45.70;99758.38;4900985;29;1142;-50
2024/02/13 03:28:45;;;;;;;;;;;;;;;15.78;45.93;99759.53;4899870;29;1117;-47
2024/02/13 03:31:10;;;;;;;;;;;;;;;17.73;45.52;99761.97;4900584;29;1226;-46
2024/02/13 03:33:36;;;;;;;;;;;;;;;16.91;46.42;99751.66;4900482;29;1407;-50
2024/02/13 03:36:02;;;;;;;;;;;;;;;16.43;46.37;99756.78;4900652;29;1123;-46
2024/02/13 03:38:27;;;;;;;;;;;;;;;16.07;46.26;99750.06;4900456;29;1908;-46
2024/02/13 03:40:53;;;;;;;;;;;;;;;15.90;45.41;99751.50;4887708;29;1200;-48
2024/02/13 03:43:19;;;;;;;;;;;;;;;15.81;45.08;99760.25;4889296;29;1070;-50
2024/02/13 03:45:44;;;;;;;;;;;;;;;16.11;46.22;99770.06;4899966;29;1070;-46
2024/02/13 03:48:10;;;;;;;;;;;;;;;17.32;45.67;99764.81;4888564;29;980;-47
2024/02/13 03:50:36;;;;;;;;;;;;;;;16.21;46.89;99775.44;4886958;29;1110;-48
2024/02/13 03:53:01;;;;;;;;;;;;;;;15.91;46.12;99758.50;4900696;29;1078;-49
2024/02/13 03:55:27;;;;;;;;;;;;;;;16.90;46.96;99774.72;4894322;29;1042;-47
2024/02/13 03:57:53;;;;;;;;;;;;;;;17.40;45.71;99774.78;4882314;29;1910;-51
2024/02/13 04:00:19;;;;;;;;;;;;;;;16.40;46.71;99773.78;4882317;29;901;-48
2024/02/13 04:02:45;;;;;;;;;;;;;;;16.02;46.62;99781.47;4893597;29;1217;-49
2024/02/13 04:05:11;;;;;;;;;;;;;;;17.90;45.19;99784.31;4895273;29;1082;-48
2024/02/13 04:07:37;;;;;;;;;;;;;;;16.54;47.02;99796.47;4893912;29;1222;-51
2024/02/13 04:10:03;;;;;;;;;;;;;;;16.07;46.58;99786.38;4894793;29;1161;-48
2024/02/13 04:12:28;;;;;;;;;;;;;;;16.01;45.86;99780.66;4882146;29;1006;-48
2024/02/13 04:14:54;;;;;;;;;;;;;;;17.11;46.51;99787.09;4899800;29;1423;-49
2024/02/13 04:17:20;;;;;;;;;;;;;;;16.72;46.76;99785.19;4900175;29;1985;-47
2024/02/13 04:19:46;;;;;;;;;;;;;;;16.31;46.14;99786.06;4900767;29;1210;-48
2024/02/13 04:22:11;;;;;;;;;;;;;;;16.05;45.79;99786.50;4899928;29;1185;-46
2024/02/13 04:24:37;;;;;;;;;;;;;;;15.82;45.35;99777.84;4887193;29;1109;-47
2024/02/13 04:27:03;;;;;;;;;;;;;;;15.65;45.32;99780.13;4904230;29;1073;-46
2024/02/13 04:29:29;;;;;;;;;;;;;;;17.31;46.10;99787.09;4891027;29;1121;-50
2024/02/13 04:31:54;;;;;;;;;;;;;;;17.20;46.08;99791.56;4903435;29;1303;-44
2024/02/13 04:34:20;;;;;;;;;;;;;;;16.37;46.96;99776.72;4896489;29;1077;-44
2024/02/13 04:36:45;;;;;;;;;;;;;;;16.08;46.42;99772.97;4898896;29;1115;-46
2024/02/13 04:39:11;;;;;;;;;;;;;;;15.81;45.89;99776.16;4896193;29;1914;-46
2024/02/13 04:41:39;;;;;;;;;;;;;;;17.44;46.19;99781.47;4886502;29;1038;-46
2024/02/13 04:44:07;;;;;;;;;;;;;;;16.64;46.78;99789.38;4895913;29;1066;-49
2024/02/13 04:46:33;;;;;;;;;;;;;;;16.14;46.43;99798.16;4886655;29;1163;-46
2024/02/13 04:49:00;;;;;;;;;;;;;;;15.98;45.88;99794.16;4903556;29;1197;-46
2024/02/13 04:51:26;;;;;;;;;;;;;;;15.87;45.27;99797.72;4903475;29;1094;-49
2024/02/13 04:53:52;;;;;;;;;;;;;;;16.90;46.46;99798.63;4894609;29;1172;-47
2024/02/13 04:56:17;;;;;;;;;;;;;;;17.52;45.43;99807.38;4885301;29;1178;-50
2024/02/13 04:58:43;;;;;;;;;;;;;;;16.36;46.89;99820.16;4890218;29;1911;-47
2024/02/13 05:01:12;;;;;;;;;;;;;;;15.99;46.77;99814.41;4898921;29;1067;-47
2024/02/13 05:07:19;;;;;;;;;;;;;;;16.33;47.46;99829.22;4903154;29;1026;-48
2024/02/13 05:09:12;;;;;;;;;;;;;;;16.43;46.45;99837.25;4902859;29;1343;-51
2024/02/13 05:11:40;;;;;;;;;;;;;;;16.07;46.50;99840.28;4903345;29;1117;-43
2024/02/13 05:14:06;;;;;;;;;;;;;;;15.91;46.47;99830.13;4902882;29;1160;-45
2024/02/13 05:16:32;;;;;;;;;;;;;;;17.81;44.33;99839.25;4902464;29;1339;-50
2024/02/13 05:18:57;;;;;;;;;;;;;;;17.30;45.12;99844.72;4902667;29;1919;-50
2024/02/13 05:21:24;;;;;;;;;;;;;;;17.06;45.50;99837.13;4902709;29;1104;-50
2024/02/13 05:23:49;;;;;;;;;;;;;;;16.84;45.91;99853.16;4892807;29;975;-51
2024/02/13 05:26:17;;;;;;;;;;;;;;;16.64;46.30;99849.59;4898352;29;1063;-45
2024/02/13 05:28:43;;;;;;;;;;;;;;;16.55;46.57;99851.25;4902715;29;1047;-47
2024/02/13 05:31:09;;;;;;;;;;;;;;;16.39;46.81;99857.06;4890167;29;1111;-48
2024/02/13 05:33:35;;;;;;;;;;;;;;;16.22;47.42;99866.47;4902414;29;1054;-51
2024/02/13 05:36:02;;;;;;;;;;;;;;;16.11;47.25;99870.91;4888242;29;1139;-47
2024/02/13 05:38:28;;;;;;;;;;;;;;;16.00;47.92;99878.91;4895883;29;1985;-50
2024/02/13 05:40:53;;;;;;;;;;;;;;;15.82;47.93;99879.47;4890376;29;1076;-47
2024/02/13 05:43:20;;;;;;;;;;;;;;;15.77;48.01;99877.22;4902452;29;1177;-46
2024/02/13 05:45:47;;;;;;;;;;;;;;;15.63;48.46;99881.00;4902389;29;1169;-48
2024/02/13 05:48:13;;;;;;;;;;;;;;;15.64;48.15;99893.31;4890887;29;1085;-49
2024/02/13 05:50:39;;;;;;;;;;;;;;;15.48;48.75;99880.44;4895543;29;1038;-51
2024/02/13 05:53:06;;;;;;;;;;;;;;;15.38;48.96;99898.91;4896157;29;1253;-48
2024/02/13 05:55:32;;;;;;;;;;;;;;;15.30;48.95;99894.25;4890222;29;1127;-52
2024/02/13 05:57:58;;;;;;;;;;;;;;;15.27;48.69;99898.97;4889795;29;1910;-51
2024/02/13 06:00:24;;;;;;;;;;;;;;;16.59;46.47;99897.81;4897407;29;1328;-52
2024/02/13 06:02:54;;;;;;;;;;;;;;;17.05;44.86;99894.72;4902273;29;1133;-49
2024/02/13 06:05:23;;;;;;;;;;;;;;;16.18;47.16;99900.41;4902491;29;1081;-52
2024/02/13 06:07:49;;;;;;;;;;;;;;;16.02;47.94;99903.50;4894581;29;1467;-45
2024/02/13 06:10:16;;;;;;;;;;;;;;;15.77;48.50;99901.06;4902315;29;1078;-50
2024/02/13 06:12:41;;;;;;;;;;;;;;;15.62;48.71;99900.53;4891077;29;1375;-46
2024/02/13 06:15:08;;;;;;;;;;;;;;;15.42;48.84;99902.16;4901855;29;1406;-47
2024/02/13 06:17:34;;;;;;;;;;;;;;;15.44;49.21;99913.50;4901368;29;1978;-49
2024/02/13 06:20:04;;;;;;;;;;;;;;;16.92;46.00;99915.38;4901967;29;1089;-48
2024/02/13 06:22:32;;;;;;;;;;;;;;;17.00;45.31;99911.09;4901765;29;1218;-49
2024/02/13 06:24:59;;;;;;;;;;;;;;;16.25;47.16;99908.66;4898233;29;1504;-49
2024/02/13 06:27:24;;;;;;;;;;;;;;;16.00;47.83;99913.38;4891578;29;1054;-49
2024/02/13 06:29:50;;;;;;;;;;;;;;;15.76;48.29;99906.50;4899767;29;1228;-51
2024/02/13 06:32:15;;;;;;;;;;;;;;;15.60;48.38;99912.25;4900186;29;1170;-48
2024/02/13 06:34:41;;;;;;;;;;;;;;;15.50;48.59;99914.78;4901418;29;1141;-48
2024/02/13 06:37:06;;;;;;;;;;;;;;;15.35;49.21;99919.56;4900045;29;1906;-49
2024/02/13 06:39:32;;;;;;;;;;;;;;;16.73;46.40;99912.53;4897481;29;1389;-49
2024/02/13 06:41:57;;;;;;;;;;;;;;;17.13;44.97;99910.88;4889371;29;1324;-52
2024/02/13 06:44:23;;;;;;;;;;;;;;;16.26;46.94;99903.25;4894609;29;1178;-51
2024/02/13 06:46:49;;;;;;;;;;;;;;;15.90;47.90;99915.94;4888849;29;1157;-51
2024/02/13 06:49:15;;;;;;;;;;;;;;;15.80;47.83;99910.56;4900154;29;1348;-53
2024/02/13 06:51:40;;;;;;;;;;;;;;;15.58;48.93;99916.81;4900953;29;1135;-47
2024/02/13 06:54:06;;;;;;;;;;;;;;;15.46;48.75;99914.22;4889364;29;1602;-51
2024/02/13 06:56:32;;;;;;;;;;;;;;;15.74;48.63;99911.09;4895215;29;1177;-50
2024/02/13 06:58:57;;;;;;;;;;;;;;;17.16;45.17;99903.59;4894603;29;1970;-51
2024/02/13 07:01:23;;;;;;;;;;;;;;;16.72;45.84;99897.56;4885861;29;1094;-46
2024/02/13 07:03:49;;;;;;;;;;;;;;;16.21;47.12;99904.59;4905642;29;1110;-51
2024/02/13 07:06:18;;;;;;;;;;;;;;;15.84;48.07;99897.91;4900852;29;1099;-51
2024/02/13 07:08:44;;;;;;;;;;;;;;;15.63;48.45;99899.56;4900704;29;1050;-49
2024/02/13 07:11:10;;;;;;;;;;;;;;;15.54;48.70;99905.63;4892986;29;1122;-48
2024/02/13 07:13:36;;;;;;;;;;;;;;;15.40;49.09;99902.28;4890766;29;1144;-50
2024/02/13 07:16:07;;;;;;;;;;;;;;;16.93;45.86;99907.31;4888740;29;1229;-53
2024/02/13 07:18:33;;;;;;;;;;;;;;;16.99;45.26;99903.25;4893338;29;1966;-51
2024/02/13 07:20:59;;;;;;;;;;;;;;;16.26;47.00;99903.25;4896362;29;1159;-46
2024/02/13 07:23:25;;;;;;;;;;;;;;;15.93;47.96;99898.94;4900762;29;1526;-49
2024/02/13 07:25:50;;;;;;;;;;;;;;;15.71;48.48;99895.44;4884417;29;967;-51
2024/02/13 07:28:16;;;;;;;;;;;;;;;15.55;48.56;99892.25;4900318;29;1335;-49
2024/02/13 07:30:41;;;;;;;;;;;;;;;15.38;48.99;99890.16;4894726;29;1324;-50
2024/02/13 07:33:07;;;;;;;;;;;;;;;15.97;47.97;99887.94;4894451;29;1419;-53
2024/02/13 07:35:32;;;;;;;;;;;;;;;17.31;44.96;99896.06;4900069;29;1320;-51
2024/02/13 07:37:58;;;;;;;;;;;;;;;16.77;45.90;99889.19;4895673;29;1902;-45
2024/02/13 07:40:24;;;;;;;;;;;;;;;16.19;47.38;99894.13;4898593;29;1222;-50
2024/02/13 07:42:49;;;;;;;;;;;;;;;15.82;48.19;99895.38;4901049;29;1122;-50
2024/02/13 07:45:15;;;;;;;;;;;;;;;15.70;48.22;99891.94;4900070;29;1093;-49
2024/02/13 07:47:41;;;;;;;;;;;;;;;15.51;48.50;99893.47;4897129;29;971;-49
2024/02/13 07:50:09;;;;;;;;;;;;;;;15.37;49.09;99891.94;4899362;29;1206;-47
2024/02/13 07:52:35;;;;;;;;;;;;;;;16.44;47.13;99896.47;4894833;29;1026;-47
2024/02/13 07:55:04;;;;;;;;;;;;;;;17.53;44.42;99896.78;4912463;29;1202;-48
2024/02/13 07:57:33;;;;;;;;;;;;;;;16.68;46.06;99898.84;4900266;29;1903;-49
2024/02/13 07:59:59;;;;;;;;;;;;;;;16.14;47.23;99904.28;4899569;29;1155;-50
2024/02/13 08:02:28;;;;;;;;;;;;;;;15.87;48.06;99902.94;4903143;29;1170;-57
2024/02/13 08:04:53;;;;;;;;;;;;;;;15.68;48.28;99907.16;4904341;29;1300;-52
2024/02/13 08:07:19;;;;;;;;;;;;;;;15.54;48.95;99906.47;4904142;29;1069;-52
2024/02/13 08:09:45;;;;;;;;;;;;;;;15.41;48.78;99903.97;4904462;29;1158;-55
2024/02/13 08:12:12;;;;;;;;;;;;;;;16.52;46.79;99899.31;4900318;29;1673;-55
2024/02/13 08:14:38;;;;;;;;;;;;;;;17.44;44.54;99901.97;4902060;29;1733;-52
2024/02/13 08:17:08;;;;;;;;;;;;;;;16.47;47.01;99902.38;4903967;29;894;-58
2024/02/13 08:19:34;;;;;;;;;;;;;;;16.03;47.53;99902.53;4903578;29;1910;-57
2024/02/13 08:22:00;;;;;;;;;;;;;;;15.78;48.43;99905.41;4902504;29;1302;-56
2024/02/13 08:24:26;;;;;;;;;;;;;;;15.61;48.75;99905.97;4887039;29;1110;-56
2024/02/13 08:26:52;;;;;;;;;;;;;;;15.45;49.14;99903.75;4898763;29;1010;-56
2024/02/13 08:29:19;;;;;;;;;;;;;;;15.51;49.26;99908.53;4903292;29;1133;-55
2024/02/13 08:31:45;;;;;;;;;;;;;;;16.98;45.86;99904.25;4902807;29;1098;-58
2024/02/13 08:34:10;;;;;;;;;;;;;;;17.05;45.42;99908.00;4903601;29;1095;-52
2024/02/13 08:36:38;;;;;;;;;;;;;;;16.26;47.15;99902.41;4900642;29;1332;-52
2024/02/13 08:39:04;;;;;;;;;;;;;;;15.92;48.20;99911.38;4903908;29;1918;-56
2024/02/13 08:41:31;;;;;;;;;;;;;;;15.73;48.47;99909.41;4902863;29;1276;-55
2024/02/13 08:43:57;;;;;;;;;;;;;;;15.57;48.68;99915.13;4903615;29;1081;-54
2024/02/13 08:46:23;;;;;;;;;;;;;;;15.45;48.99;99917.81;4902264;29;1418;-50
2024/02/13 08:48:50;;;;;;;;;;;;;;;15.36;49.43;99919.44;4898767;29;1159;-51
2024/02/13 08:51:16;;;;;;;;;;;;;;;16.76;46.40;99914.94;4897836;29;1331;-46
2024/02/13 08:53:42;;;;;;;;;;;;;;;17.14;45.35;99922.34;4902866;29;1331;-45
2024/02/13 08:56:08;;;;;;;;;;;;;;;16.25;47.39;99922.78;4902559;29;1331;-48
2024/02/13 08:58:34;;;;;;;;;;;;;;;15.94;47.87;99924.50;4902963;29;1911;-50
2024/02/13 09:01:00;;;;;;;;;;;;;;;15.66;48.92;99930.28;4901908;29;1166;-52
2024/02/13 09:03:26;;;;;;;;;;;;;;;15.48;49.02;99925.50;4903101;29;1324;-50
2024/02/13 09:05:51;;;;;;;;;;;;;;;15.38;49.63;99925.41;4900776;29;1569;-47
2024/02/13 09:08:17;;;;;;;;;;;;;;;16.52;47.06;99926.72;4907840;29;1095;-46
2024/02/13 09:10:42;;;;;;;;;;;;;;;17.28;45.10;99928.25;4903126;29;1161;-46
2024/02/13 09:13:08;;;;;;;;;;;;;;;16.34;47.15;99926.47;4891655;29;1128;-47
2024/02/13 09:15:34;;;;;;;;;;;;;;;15.89;48.17;99915.13;4902989;29;1161;-49
2024/02/13 09:17:59;;;;;;;;;;;;;;;15.77;48.53;99918.78;4898675;29;1915;-48
2024/02/13 09:20:26;;;;;;;;;;;;;;;15.60;48.82;99928.97;4884476;29;1126;-46
2024/02/13 09:22:51;;;;;;;;;;;;;;;15.45;49.33;99919.66;4900629;29;1143;-48
2024/02/13 09:25:19;;;;;;;;;;;;;;;15.32;49.53;99917.97;4896001;29;982;-46
2024/02/13 09:27:47;;;;;;;;;;;;;;;16.47;47.42;99922.75;4901676;29;1321;-47
2024/02/13 09:30:13;;;;;;;;;;;;;;;17.21;45.35;99926.16;4900323;29;1130;-46
2024/02/13 09:32:39;;;;;;;;;;;;;;;16.31;47.22;99917.94;4898638;29;1023;-47
2024/02/13 09:35:05;;;;;;;;;;;;;;;16.16;47.59;99913.78;4900734;29;1039;-53
2024/02/13 09:37:31;;;;;;;;;;;;;;;15.74;48.49;99911.94;4899866;29;1902;-48
2024/02/13 09:39:57;;;;;;;;;;;;;;;15.55;49.18;99917.91;4896396;29;1557;-46
2024/02/13 09:42:23;;;;;;;;;;;;;;;15.25;49.87;99912.34;4901808;29;1201;-52
2024/02/13 09:44:49;;;;;;;;;;;;;;;15.85;49.02;99913.69;4900263;29;1190;-50
2024/02/13 09:47:16;;;;;;;;;;;;;;;17.19;45.64;99914.81;4902547;29;1050;-50
2024/02/13 09:49:43;;;;;;;;;;;;;;;16.62;46.65;99909.97;4888871;29;1116;-50
2024/02/13 09:52:09;;;;;;;;;;;;;;;15.99;47.97;99907.25;4895248;29;1070;-50
2024/02/13 09:54:35;;;;;;;;;;;;;;;15.78;48.67;99909.88;4895517;29;1398;-50
2024/02/13 09:57:05;;;;;;;;;;;;;;;15.60;49.25;99913.06;4898471;29;2535;-55
2024/02/13 09:59:32;;;;;;;;;;;;;;;15.40;49.66;99912.03;4895202;29;1915;-47
2024/02/13 10:01:59;;;;;;;;;;;;;;;15.69;49.08;99902.66;4909212;29;1075;-48
2024/02/13 10:04:25;;;;;;;;;;;;;;;17.07;45.71;99898.09;4895896;29;1495;-52
2024/02/13 10:06:50;;;;;;;;;;;;;;;16.97;45.75;99895.41;4893142;29;919;-50
2024/02/13 10:09:16;;;;;;;;;;;;;;;16.25;47.48;99893.59;4899376;29;1069;-45
2024/02/13 10:11:42;;;;;;;;;;;;;;;15.93;48.13;99898.94;4913536;29;1086;-48
2024/02/13 10:14:21;;;;;;;;;;;;;;;15.66;48.87;99894.00;4890704;29;1050;-50
2024/02/13 10:16:50;;;;;;;;;;;;;;;15.52;49.21;99894.31;4900158;29;1069;-47
2024/02/13 10:19:21;;;;;;;;;;;;;;;15.38;49.20;99883.03;4890761;29;1976;-46
2024/02/13 10:21:49;;;;;;;;;;;;;;;16.20;47.95;99885.19;4889768;29;1273;-48
2024/02/13 10:24:15;;;;;;;;;;;;;;;17.31;44.95;99880.97;4899383;29;953;-47
2024/02/13 10:26:41;;;;;;;;;;;;;;;16.47;47.08;99880.28;4897970;29;1083;-47
2024/02/13 10:29:07;;;;;;;;;;;;;;;15.95;48.38;99879.28;4900652;29;2853;-47
2024/02/13 10:31:36;;;;;;;;;;;;;;;15.65;48.89;99884.38;4898052;29;1324;-45
2024/02/13 10:34:36;;;;;;;;;;;;;;;15.49;49.17;99879.50;4898342;29;1303;-45
2024/02/13 10:37:10;;;;;;;;;;;;;;;15.77;48.86;99879.00;4889490;29;1182;-43
2024/02/13 10:39:44;;;;;;;;;;;;;;;17.17;45.82;99882.19;4890899;29;1974;-48
2024/02/13 10:42:30;;;;;;;;;;;;;;;16.73;46.26;99879.84;4910160;29;1127;-47
2024/02/13 10:44:59;;;;;;;;;;;;;;;16.07;47.88;99872.13;4914995;29;1210;-46
2024/02/13 10:47:59;;;;;;;;;;;;;;;;;;;;;
2024/02/13 10:50:28;;;;;;;;;;;;;;;15.53;49.39;99874.78;4893551;29;1118;-46
2024/02/13 10:52:58;;;;;;;;;;;;;;;15.45;49.63;99882.53;4900218;29;1553;-45
2024/02/13 10:55:24;;;;;;;;;;;;;;;15.28;49.96;99882.94;4898925;29;1566;-47
2024/02/13 10:57:50;;;;;;;;;;;;;;;15.86;48.75;99878.25;4892059;29;2631;-44
2024/02/13 11:00:22;;;;;;;;;;;;;;;17.18;45.48;99865.28;4895011;29;1288;-47
2024/02/13 11:02:51;;;;;;;;;;;;;;;16.64;46.41;99871.69;4896293;29;1083;-46
2024/02/13 11:05:17;;;;;;;;;;;;;;;16.06;47.65;99870.44;4896389;29;1217;-46
2024/02/13 11:07:43;;;;;;;;;;;;;;;15.78;48.79;99859.50;4894953;29;1059;-47
2024/02/13 11:10:09;;;;;;;;;;;;;;;15.54;49.43;99861.41;4889284;29;1011;-48
2024/02/13 11:12:38;;;;;;;;;;;;;;;15.46;49.56;99869.16;4896291;29;1359;-46
2024/02/13 11:15:12;;;;;;;;;;;;;;;15.36;49.66;99863.78;4897119;29;1131;-47
2024/02/13 11:18:07;;;;;;;;;;;;;;;16.63;47.02;99861.22;4915433;29;1977;-46
2024/02/13 11:20:37;;;;;;;;;;;;;;;16.64;46.58;99860.22;4889943;29;1256;-49
2024/02/13 11:23:03;;;;;;;;;;;;;;;16.05;47.98;99852.84;4897424;29;1117;-47
2024/02/13 11:25:29;;;;;;;;;;;;;;;15.71;48.55;99858.31;4899757;29;1547;-45
2024/02/13 11:27:58;;;;;;;;;;;;;;;15.57;49.14;99855.00;4894355;29;2525;-48
2024/02/13 11:30:23;;;;;;;;;;;;;;;15.45;49.58;99853.38;4900925;29;1032;-48
2024/02/13 11:32:52;;;;;;;;;;;;;;;15.36;49.83;99855.81;4888099;29;1087;-51
2024/02/13 11:35:18;;;;;;;;;;;;;;;16.77;46.65;99842.25;4890063;29;1308;-50
2024/02/13 11:37:43;;;;;;;;;;;;;;;16.79;46.08;99846.56;4899286;29;1906;-47
2024/02/13 11:40:12;;;;;;;;;;;;;;;16.07;47.65;99842.94;4899202;29;1126;-46
2024/02/13 11:42:38;;;;;;;;;;;;;;;15.78;48.45;99846.22;4904224;29;1276;-46
2024/02/13 11:45:05;;;;;;;;;;;;;;;15.55;48.97;99849.81;4903296;29;1340;-46
2024/02/13 11:47:32;;;;;;;;;;;;;;;15.48;49.06;99847.81;4904593;29;1300;-42
2024/02/13 11:49:58;;;;;;;;;;;;;;;15.46;49.51;99847.94;4903196;29;1177;-45
2024/02/13 11:52:23;;;;;;;;;;;;;;;16.90;46.08;99846.44;4903829;29;1339;-43
2024/02/13 11:54:50;;;;;;;;;;;;;;;16.77;46.09;99847.56;4904281;29;1254;-44
2024/02/13 11:57:19;;;;;;;;;;;;;;;16.12;47.80;99845.19;4898682;29;1953;-46
2024/02/13 12:00:12;;;;;;;;;;;;;;;15.95;47.93;99844.78;4895746;29;1146;-49
2024/02/13 12:02:38;;;;;;;;;;;;;;;15.60;49.00;99844.13;4898064;29;1106;-47
2024/02/13 12:05:04;;;;;;;;;;;;;;;15.49;48.99;99849.50;4900405;29;1166;-47
2024/02/13 12:07:30;;;;;;;;;;;;;;;15.29;49.67;99836.94;4903669;29;1299;-44
2024/02/13 12:09:55;;;;;;;;;;;;;;;15.69;49.14;99842.53;4903855;29;1387;-44
2024/02/13 12:12:21;;;;;;;;;;;;;;;17.08;45.63;99836.00;4900134;29;1051;-48
2024/02/13 12:14:48;;;;;;;;;;;;;;;16.61;46.40;99842.75;4896099;29;1162;-48
2024/02/13 12:17:14;;;;;;;;;;;;;;;15.99;47.87;99837.44;4896635;29;1372;-45
2024/02/13 12:19:40;;;;;;;;;;;;;;;15.71;48.72;99843.25;4903703;29;1911;-41
2024/02/13 12:22:09;;;;;;;;;;;;;;;15.60;48.90;99845.97;4903749;29;1182;-48
2024/02/13 12:24:40;;;;;;;;;;;;;;;15.42;49.11;99838.56;4913304;29;1423;-44
2024/02/13 12:27:12;;;;;;;;;;;;;;;15.39;49.49;99841.47;4905821;29;2510;-45
2024/02/13 12:29:41;;;;;;;;;;;;;;;15.45;49.57;99840.94;4891602;29;1137;-47
2024/02/13 12:32:10;;;;;;;;;;;;;;;16.90;45.94;99843.78;4902961;29;1287;-49
2024/02/13 12:34:36;;;;;;;;;;;;;;;16.57;46.61;99838.69;4902268;29;1079;-46
2024/02/13 12:37:05;;;;;;;;;;;;;;;15.98;47.85;99833.94;4903017;29;1184;-50
2024/02/13 12:39:30;;;;;;;;;;;;;;;15.67;48.58;99836.50;4891694;29;2329;-47
2024/02/13 12:41:57;;;;;;;;;;;;;;;15.51;49.20;99839.63;4902288;29;1195;-50
2024/02/13 12:44:23;;;;;;;;;;;;;;;15.37;49.25;99849.53;4903527;29;995;-46
2024/02/13 12:46:51;;;;;;;;;;;;;;;15.29;49.50;99842.25;4901797;29;1185;-48
2024/02/13 12:49:19;;;;;;;;;;;;;;;15.37;49.35;99838.94;4883982;29;1035;-47
2024/02/13 12:51:45;;;;;;;;;;;;;;;16.89;46.00;99840.31;4896788;29;1053;-43
2024/02/13 12:54:11;;;;;;;;;;;;;;;16.86;45.88;99829.13;4902953;29;1265;-45
2024/02/13 12:56:41;;;;;;;;;;;;;;;16.05;47.50;99842.22;4903453;29;1280;-45
2024/02/13 12:59:12;;;;;;;;;;;;;;;15.72;48.55;99839.63;4900904;29;2676;-45